Ashcroft

Ashcroft

Ashcroft Airfield (EGCR) is located 2nm south west of  Winsford in Cheshire.

It offers four grass runways:

  • 09/27 520m x 11m with lights
  • 13/31 500m x 12m
  • 17/35 350m x 10m
  • 12/30 500m x 10m

Safety Com 135.475

Link for Ashcroft Airfield Pilot Briefing.

Manchester Weather
EGCC 010456Z 0106/0212 22004KT 9999 SCT030 TEMPO 0109/0114 7000 SHRA BKN014 PROB30 TEMPO 0111/0115 4000 +SHRA BECMG 0120/0123 16012KT PROB40 TEMPO 0120/0206 7000 RA